Time;durP1;ratioP1;P1;durP2;ratioP2;P2;SDS_P1;SDS_P2;PMS_P1;PMS_P2;Temp;Humidity;BMP_temperature;BMP_pressure;BME280_temperature;BME280_humidity;BME280_pressure;Samples;Min_cycle;Max_cycle;Signal;HPM_P1;HPM_P2
2022/06/07 00:00:17;;;;;;;39.15;30.58;;;;;;;;;;5296389;28;20194;-85
2022/06/07 00:02:48;;;;;;;43.00;32.10;;;;;;;;;;5286584;28;20147;-86
2022/06/07 00:05:19;;;;;;;41.53;29.00;;;;;;;;;;5282643;28;20055;-85
2022/06/07 00:07:51;;;;;;;34.28;27.52;;;;;;;;;;5315394;27;20028;-86
2022/06/07 00:10:23;;;;;;;38.40;29.20;;;;;;;;;;5297639;27;20048;-85
2022/06/07 00:12:57;;;;;;;37.40;29.45;;;;;;;;;;5278902;28;20127;-86
2022/06/07 00:15:28;;;;;;;37.38;29.63;;;;;;;;;;5282949;28;20098;-86
2022/06/07 00:18:00;;;;;;;31.80;27.02;;;;;;;;;;5281417;28;20167;-86
2022/06/07 00:20:31;;;;;;;38.90;31.13;;;;;;;;;;5279397;28;20037;-86
2022/06/07 00:23:07;;;;;;;40.88;30.70;;;;;;;;;;5280121;28;20394;-86
2022/06/07 00:25:38;;;;;;;39.20;30.83;;;;;;;;;;5281207;28;20543;-86
2022/06/07 00:28:10;;;;;;;43.40;29.85;;;;;;;;;;5288414;28;20028;-86
2022/06/07 00:30:41;;;;;;;38.03;29.73;;;;;;;;;;5285072;28;20072;-86
2022/06/07 00:33:13;;;;;;;37.38;30.35;;;;;;;;;;5286207;28;20032;-85
2022/06/07 00:35:44;;;;;;;33.83;28.33;;;;;;;;;;5304953;28;20080;-86
2022/06/07 00:38:15;;;;;;;40.30;33.40;;;;;;;;;;5305486;28;20053;-86
2022/06/07 00:40:47;;;;;;;39.75;30.50;;;;;;;;;;5300544;28;20021;-85
2022/06/07 00:43:21;;;;;;;37.67;30.08;;;;;;;;;;5303544;28;20037;-86
2022/06/07 00:45:52;;;;;;;35.45;30.10;;;;;;;;;;5287637;28;20377;-86
2022/06/07 00:48:24;;;;;;;35.43;28.60;;;;;;;;;;5286923;28;20036;-86
2022/06/07 00:50:55;;;;;;;35.63;28.85;;;;;;;;;;5288303;28;20279;-86
2022/06/07 00:53:28;;;;;;;31.13;27.77;;;;;;;;;;5284922;28;20155;-86
2022/06/07 00:56:00;;;;;;;29.98;26.83;;;;;;;;;;5293157;28;20239;-86
2022/06/07 00:58:32;;;;;;;30.08;26.88;;;;;;;;;;5321297;28;20024;-85
2022/06/07 01:01:04;;;;;;;32.80;27.33;;;;;;;;;;5306128;28;20031;-86
2022/06/07 01:03:35;;;;;;;27.17;24.17;;;;;;;;;;5306220;28;20133;-85
2022/06/07 01:11:49;;;;;;;23.23;20.30;;;;;;;;;;5309334;28;20025;-85
2022/06/07 01:14:20;;;;;;;27.65;22.67;;;;;;;;;;5304927;28;20029;-85
2022/06/07 01:16:51;;;;;;;25.75;22.30;;;;;;;;;;5288552;28;20376;-85
2022/06/07 01:19:23;;;;;;;24.13;21.50;;;;;;;;;;5293241;28;20067;-86
2022/06/07 01:21:54;;;;;;;27.13;20.52;;;;;;;;;;5301061;28;20369;-85
2022/06/07 01:24:25;;;;;;;21.43;19.23;;;;;;;;;;5299605;28;20183;-86
2022/06/07 01:26:56;;;;;;;24.43;19.50;;;;;;;;;;5301721;28;20302;-86
2022/06/07 01:29:27;;;;;;;21.05;18.02;;;;;;;;;;5295440;28;20770;-86
2022/06/07 01:31:59;;;;;;;19.13;16.93;;;;;;;;;;5310914;27;20138;-86
2022/06/07 01:34:30;;;;;;;22.98;16.98;;;;;;;;;;5304474;28;20271;-86
2022/06/07 01:37:02;;;;;;;20.20;15.20;;;;;;;;;;5301398;28;20111;-85
2022/06/07 01:42:26;;;;;;;21.95;16.15;;;;;;;;;;5305492;28;20176;-86
2022/06/07 01:44:58;;;;;;;20.77;16.38;;;;;;;;;;5305675;28;20478;-85
2022/06/07 01:47:30;;;;;;;18.30;15.45;;;;;;;;;;5289025;28;20083;-85
2022/06/07 01:50:05;;;;;;;21.00;15.70;;;;;;;;;;5304172;28;20040;-85
2022/06/07 01:52:37;;;;;;;16.73;14.50;;;;;;;;;;5305343;28;20048;-86
2022/06/07 01:55:08;;;;;;;17.25;15.07;;;;;;;;;;5305219;28;20063;-86
2022/06/07 01:57:39;;;;;;;18.48;13.50;;;;;;;;;;5306819;28;20021;-86
2022/06/07 02:00:11;;;;;;;14.20;12.48;;;;;;;;;;5306969;28;20040;-86
2022/06/07 02:02:42;;;;;;;15.32;12.43;;;;;;;;;;5326241;27;20128;-85
2022/06/07 02:05:15;;;;;;;13.02;11.52;;;;;;;;;;5328003;27;20405;-85
2022/06/07 02:07:46;;;;;;;14.60;11.68;;;;;;;;;;5322042;28;20468;-86
2022/06/07 02:10:17;;;;;;;11.57;10.33;;;;;;;;;;5326519;27;20020;-86
2022/06/07 02:12:48;;;;;;;14.03;10.93;;;;;;;;;;5308623;27;20282;-86
2022/06/07 02:15:20;;;;;;;13.93;11.05;;;;;;;;;;5328992;27;20592;-86
2022/06/07 02:17:51;;;;;;;13.35;10.55;;;;;;;;;;5307882;27;20039;-87
2022/06/07 02:20:22;;;;;;;14.80;10.87;;;;;;;;;;5306131;27;20493;-86
2022/06/07 02:22:53;;;;;;;16.00;10.20;;;;;;;;;;5330710;27;20330;-86
2022/06/07 02:25:25;;;;;;;13.90;10.47;;;;;;;;;;5304796;27;20270;-87
2022/06/07 02:27:56;;;;;;;13.40;9.80;;;;;;;;;;5301524;27;20298;-87
2022/06/07 02:30:28;;;;;;;12.30;9.10;;;;;;;;;;5317932;27;20029;-87
2022/06/07 02:32:59;;;;;;;10.88;8.80;;;;;;;;;;5294814;27;20035;-86
2022/06/07 02:35:31;;;;;;;10.73;9.02;;;;;;;;;;5316958;27;20029;-86
2022/06/07 02:38:02;;;;;;;10.93;8.80;;;;;;;;;;5294559;27;20035;-86
2022/06/07 02:40:34;;;;;;;10.88;8.68;;;;;;;;;;5302661;27;20033;-87
2022/06/07 02:43:05;;;;;;;12.15;8.25;;;;;;;;;;5323454;27;20134;-86
2022/06/07 02:45:36;;;;;;;8.23;7.40;;;;;;;;;;5315652;27;20024;-87
2022/06/07 02:48:09;;;;;;;8.77;7.50;;;;;;;;;;5316671;27;20111;-87
2022/06/07 02:50:41;;;;;;;10.57;8.35;;;;;;;;;;5302282;27;20349;-86
2022/06/07 02:53:13;;;;;;;9.73;7.53;;;;;;;;;;5315076;27;20032;-86
2022/06/07 02:55:44;;;;;;;9.50;7.45;;;;;;;;;;5291789;27;20086;-86
2022/06/07 02:58:18;;;;;;;10.95;7.50;;;;;;;;;;5296901;27;20120;-86
2022/06/07 03:00:50;;;;;;;11.00;6.38;;;;;;;;;;5297050;27;20023;-86
2022/06/07 03:03:21;;;;;;;10.95;7.22;;;;;;;;;;5298627;27;20050;-86
2022/06/07 03:05:52;;;;;;;7.83;5.80;;;;;;;;;;5287612;27;20094;-87
2022/06/07 03:08:24;;;;;;;9.63;6.60;;;;;;;;;;5311599;27;20298;-86
2022/06/07 03:10:55;;;;;;;7.88;6.25;;;;;;;;;;5297579;27;20373;-86
2022/06/07 03:13:26;;;;;;;7.85;5.70;;;;;;;;;;5316465;27;20039;-86
2022/06/07 03:15:58;;;;;;;9.20;6.55;;;;;;;;;;5294694;28;20408;-85
2022/06/07 03:18:29;;;;;;;8.73;6.30;;;;;;;;;;5295839;27;20039;-86
2022/06/07 03:21:00;;;;;;;8.03;6.40;;;;;;;;;;5314236;27;20024;-86
2022/06/07 03:23:32;;;;;;;8.38;6.03;;;;;;;;;;5318996;27;20302;-86
2022/06/07 03:26:08;;;;;;;12.25;6.20;;;;;;;;;;5318871;27;20036;-86
2022/06/07 03:28:39;;;;;;;9.50;5.93;;;;;;;;;;5292708;27;20430;-86
2022/06/07 03:31:12;;;;;;;8.85;5.78;;;;;;;;;;5295117;27;20053;-86
2022/06/07 03:33:44;;;;;;;7.97;6.18;;;;;;;;;;5298390;28;20035;-86
2022/06/07 03:36:27;;;;;;;7.10;5.35;;;;;;;;;;5310229;28;20028;-86
2022/06/07 03:39:00;;;;;;;10.13;5.55;;;;;;;;;;5317446;27;20101;-86
2022/06/07 03:41:31;;;;;;;6.88;5.68;;;;;;;;;;5327172;27;20024;-86
2022/06/07 03:44:03;;;;;;;7.32;5.22;;;;;;;;;;5297079;27;20070;-86
2022/06/07 03:46:35;;;;;;;10.35;5.50;;;;;;;;;;5289480;27;20031;-86
2022/06/07 03:49:06;;;;;;;8.73;5.63;;;;;;;;;;5330836;27;20474;-86
2022/06/07 03:51:37;;;;;;;11.67;6.40;;;;;;;;;;5305278;27;20302;-86
2022/06/07 03:54:08;;;;;;;8.05;5.72;;;;;;;;;;5301201;28;20262;-87
2022/06/07 03:56:39;;;;;;;8.95;6.38;;;;;;;;;;5321227;27;20473;-86
2022/06/07 03:59:11;;;;;;;9.00;5.82;;;;;;;;;;5318833;27;20028;-87
2022/06/07 04:01:42;;;;;;;9.30;6.23;;;;;;;;;;5293980;27;20031;-86
2022/06/07 04:04:13;;;;;;;7.07;5.43;;;;;;;;;;5299093;27;20323;-86
2022/06/07 04:08:10;;;;;;;9.45;5.78;;;;;;;;;;5292446;27;20028;-87
2022/06/07 04:09:39;;;;;;;8.40;5.65;;;;;;;;;;5317554;27;20127;-86
2022/06/07 04:12:12;;;;;;;8.43;5.88;;;;;;;;;;5293555;27;20047;-86
2022/06/07 04:14:44;;;;;;;7.90;5.68;;;;;;;;;;5300672;27;20058;-86
2022/06/07 04:17:15;;;;;;;14.73;6.40;;;;;;;;;;5299481;27;20043;-86
2022/06/07 04:19:47;;;;;;;8.80;6.23;;;;;;;;;;5318384;27;20630;-86
2022/06/07 04:22:18;;;;;;;9.48;6.15;;;;;;;;;;5325810;27;20304;-86
2022/06/07 04:24:49;;;;;;;9.13;5.90;;;;;;;;;;5308172;28;20086;-87
2022/06/07 04:27:21;;;;;;;9.67;6.50;;;;;;;;;;5304198;27;20039;-87
2022/06/07 04:29:52;;;;;;;7.63;5.97;;;;;;;;;;5302145;28;20230;-87
2022/06/07 04:32:26;;;;;;;7.57;6.47;;;;;;;;;;5287975;28;20539;-87
2022/06/07 04:34:57;;;;;;;8.77;6.47;;;;;;;;;;5323140;27;20361;-88
2022/06/07 04:37:29;;;;;;;7.00;6.10;;;;;;;;;;5324821;27;20024;-87
2022/06/07 04:40:01;;;;;;;11.30;6.55;;;;;;;;;;5309265;27;20475;-87
2022/06/07 04:42:32;;;;;;;8.75;5.88;;;;;;;;;;5327079;27;20039;-88
2022/06/07 04:45:04;;;;;;;11.13;6.53;;;;;;;;;;5290753;27;20029;-87
2022/06/07 04:47:36;;;;;;;11.43;6.72;;;;;;;;;;5306059;27;20016;-87
2022/06/07 04:50:12;;;;;;;9.38;6.88;;;;;;;;;;5295723;28;20020;-88
2022/06/07 04:52:44;;;;;;;8.63;6.43;;;;;;;;;;5294617;28;20032;-88
2022/06/07 04:55:18;;;;;;;10.80;6.65;;;;;;;;;;5301219;28;20043;-88
2022/06/07 04:57:52;;;;;;;10.27;6.70;;;;;;;;;;5305242;27;20032;-88
2022/06/07 05:00:26;;;;;;;9.00;7.25;;;;;;;;;;5303530;28;20076;-88
2022/06/07 05:03:02;;;;;;;9.65;7.32;;;;;;;;;;5321791;27;20504;-88
2022/06/07 05:05:34;;;;;;;12.40;7.30;;;;;;;;;;5300559;28;20040;-87
2022/06/07 05:08:32;;;;;;;10.77;6.80;;;;;;;;;;5304888;27;20414;-90
2022/06/07 05:11:47;;;;;;;12.98;7.90;;;;;;;;;;5302373;28;20044;-89
2022/06/07 05:18:07;;;;;;;10.90;7.15;;;;;;;;;;5240447;28;20038;-90
2022/06/07 05:21:23;;;;;;;;;;;;;;;;;;;;;
2022/06/07 05:23:57;;;;;;;11.02;7.93;;;;;;;;;;5212663;28;40738;-89
2022/06/07 05:33:52;;;;;;;11.55;7.30;;;;;;;;;;5223204;28;20074;-89
2022/06/07 05:40:05;;;;;;;9.40;7.32;;;;;;;;;;5210200;28;20035;-90
2022/06/07 05:42:46;;;;;;;10.98;7.30;;;;;;;;;;5308598;28;20134;-89
2022/06/07 05:45:24;;;;;;;11.88;7.57;;;;;;;;;;5297338;28;20515;-89
2022/06/07 05:51:07;;;;;;;10.10;7.57;;;;;;;;;;5318304;27;20035;-89
2022/06/07 05:54:17;;;;;;;9.48;7.43;;;;;;;;;;5309068;27;20037;-89
2022/06/07 05:57:06;;;;;;;12.32;8.10;;;;;;;;;;5291216;28;20031;-89
2022/06/07 06:00:05;;;;;;;13.40;8.30;;;;;;;;;;5300024;28;20051;-88
2022/06/07 06:06:27;;;;;;;12.43;9.02;;;;;;;;;;5278932;28;20167;-89
2022/06/07 06:12:27;;;;;;;14.23;9.60;;;;;;;;;;5285622;28;20037;-89
2022/06/07 06:15:39;;;;;;;12.25;9.30;;;;;;;;;;5236635;28;20034;-89
2022/06/07 06:18:41;;;;;;;18.15;9.82;;;;;;;;;;5246729;28;20056;-88
2022/06/07 06:24:25;;;;;;;16.48;10.07;;;;;;;;;;5168548;28;20123;-86
2022/06/07 06:27:13;;;;;;;;;;;;;;;;;;;;;
2022/06/07 06:30:20;;;;;;;;;;;;;;;;;;;;;
2022/06/07 06:36:19;;;;;;;10.75;8.60;;;;;;;;;;5220682;28;20033;-87
2022/06/07 06:39:02;;;;;;;17.63;9.65;;;;;;;;;;5276092;28;20041;-87
2022/06/07 06:42:11;;;;;;;12.88;11.57;;;;;;;;;;5280875;28;20091;-87
2022/06/07 06:45:00;;;;;;;15.98;11.32;;;;;;;;;;5268280;28;20103;-86
2022/06/07 06:53:52;;;;;;;14.05;11.07;;;;;;;;;;5303876;28;20031;-88
2022/06/07 07:03:14;;;;;;;13.48;9.52;;;;;;;;;;5327373;28;20028;-88
2022/06/07 07:06:23;;;;;;;16.05;9.65;;;;;;;;;;5286877;28;20139;-87
2022/06/07 07:09:05;;;;;;;13.05;10.85;;;;;;;;;;5295553;28;20316;-88
2022/06/07 07:11:52;;;;;;;11.90;8.90;;;;;;;;;;5286430;28;20037;-88
2022/06/07 07:14:49;;;;;;;;;;;;;;;;;;;;;
2022/06/07 07:17:30;;;;;;;12.25;10.25;;;;;;;;;;5299384;28;40789;-88
2022/06/07 07:20:27;;;;;;;12.43;9.68;;;;;;;;;;5285733;28;20025;-88
2022/06/07 07:23:30;;;;;;;11.48;8.88;;;;;;;;;;5273892;28;20041;-88
2022/06/07 07:26:14;;;;;;;12.25;10.18;;;;;;;;;;5301809;28;20036;-87
2022/06/07 07:28:54;;;;;;;11.50;10.30;;;;;;;;;;5284109;28;20040;-88
2022/06/07 07:32:18;;;;;;;11.00;9.90;;;;;;;;;;5266245;28;20671;-88
2022/06/07 07:35:24;;;;;;;12.10;10.63;;;;;;;;;;5275579;28;20059;-88
2022/06/07 07:38:24;;;;;;;16.13;10.45;;;;;;;;;;5263757;28;20036;-88
2022/06/07 07:41:12;;;;;;;12.25;9.70;;;;;;;;;;5287320;27;20040;-88
2022/06/07 07:43:53;;;;;;;12.73;9.30;;;;;;;;;;5305884;28;20104;-88
2022/06/07 07:46:46;;;;;;;13.52;9.82;;;;;;;;;;5325852;27;20118;-88
2022/06/07 07:49:32;;;;;;;11.63;9.93;;;;;;;;;;5306709;28;20112;-87
2022/06/07 07:52:19;;;;;;;;;;;;;;;;;;;;;
2022/06/07 07:55:08;;;;;;;12.98;11.07;;;;;;;;;;5308637;27;41556;-87
2022/06/07 07:57:42;;;;;;;14.25;10.88;;;;;;;;;;5317376;28;20043;-88
2022/06/07 08:00:36;;;;;;;13.68;10.07;;;;;;;;;;5320040;27;20232;-88
2022/06/07 08:03:26;;;;;;;14.93;9.23;;;;;;;;;;5319277;28;20480;-88
2022/06/07 08:09:26;;;;;;;15.70;12.45;;;;;;;;;;5284258;28;20040;-88
2022/06/07 08:12:13;;;;;;;16.15;12.05;;;;;;;;;;5305141;28;20100;-88
2022/06/07 08:15:02;;;;;;;14.88;10.75;;;;;;;;;;5304090;28;20358;-88
2022/06/07 08:17:43;;;;;;;11.98;10.63;;;;;;;;;;5304093;28;20027;-87
2022/06/07 08:20:31;;;;;;;14.95;11.20;;;;;;;;;;5286025;28;20451;-88
2022/06/07 08:26:08;;;;;;;13.38;10.30;;;;;;;;;;5285562;27;20035;-88
2022/06/07 08:28:51;;;;;;;14.90;13.27;;;;;;;;;;5306516;28;20016;-88
2022/06/07 08:31:34;;;;;;;13.75;12.45;;;;;;;;;;5325655;28;20074;-88
2022/06/07 08:40:54;;;;;;;12.52;10.98;;;;;;;;;;5323620;28;20024;-88
2022/06/07 08:43:32;;;;;;;12.95;10.88;;;;;;;;;;5318656;28;20120;-88
2022/06/07 08:46:44;;;;;;;12.88;11.20;;;;;;;;;;5305816;28;20101;-87
2022/06/07 08:49:19;;;;;;;13.23;10.95;;;;;;;;;;5336771;27;20093;-89
2022/06/07 08:52:07;;;;;;;11.68;10.18;;;;;;;;;;5306732;28;20097;-89
2022/06/07 08:54:50;;;;;;;12.70;11.50;;;;;;;;;;5306321;28;20036;-87
2022/06/07 09:00:44;;;;;;;14.75;12.23;;;;;;;;;;5309617;27;20034;-88
2022/06/07 09:03:56;;;;;;;;;;;;;;;;;;;;;
2022/06/07 09:06:56;;;;;;;;;;;;;;;;;;;;;
2022/06/07 09:12:31;;;;;;;12.60;9.75;;;;;;;;;;5329577;27;20456;-89
2022/06/07 09:15:13;;;;;;;9.07;7.90;;;;;;;;;;5300380;28;20101;-89
2022/06/07 09:18:03;;;;;;;8.50;7.43;;;;;;;;;;5322629;28;20472;-89
2022/06/07 09:21:02;;;;;;;10.35;7.95;;;;;;;;;;5307205;28;20024;-89
2022/06/07 09:24:26;;;;;;;11.27;7.85;;;;;;;;;;5220615;28;20085;-88
2022/06/07 09:27:34;;;;;;;8.88;7.95;;;;;;;;;;5240827;28;20029;-89
2022/06/07 09:30:11;;;;;;;10.55;8.90;;;;;;;;;;5295067;27;20043;-89
2022/06/07 09:32:58;;;;;;;9.93;8.02;;;;;;;;;;5266782;28;20025;-88
2022/06/07 09:36:02;;;;;;;11.25;6.88;;;;;;;;;;5268606;28;20576;-89
2022/06/07 09:38:40;;;;;;;8.10;6.43;;;;;;;;;;5267038;28;20036;-88
2022/06/07 09:44:21;;;;;;;8.25;5.47;;;;;;;;;;5291411;28;20037;-89
2022/06/07 09:47:32;;;;;;;8.50;6.10;;;;;;;;;;5297725;28;20032;-91
2022/06/07 09:50:26;;;;;;;7.20;4.97;;;;;;;;;;5289151;28;20491;-89
2022/06/07 09:53:35;;;;;;;9.35;4.70;;;;;;;;;;5289017;28;20497;-88
2022/06/07 09:56:19;;;;;;;6.20;5.20;;;;;;;;;;5271481;28;20051;-89
2022/06/07 09:59:19;;;;;;;8.23;5.55;;;;;;;;;;5273862;28;20108;-86
2022/06/07 10:01:51;;;;;;;9.20;6.22;;;;;;;;;;5275684;28;20174;-86
2022/06/07 10:04:38;;;;;;;7.90;6.00;;;;;;;;;;5275502;28;20045;-87
2022/06/07 10:07:14;;;;;;;7.22;5.95;;;;;;;;;;5286232;28;20029;-86
2022/06/07 10:10:02;;;;;;;6.22;5.15;;;;;;;;;;5288867;28;20458;-84
2022/06/07 10:12:34;;;;;;;7.53;5.13;;;;;;;;;;5298273;28;20562;-84
2022/06/07 10:15:23;;;;;;;8.20;5.13;;;;;;;;;;5294963;28;20040;-86
2022/06/07 10:18:15;;;;;;;8.85;4.97;;;;;;;;;;5355558;27;20043;-86
2022/06/07 10:20:46;;;;;;;8.88;4.68;;;;;;;;;;5361367;27;20043;-84
2022/06/07 10:23:36;;;;;;;7.83;3.63;;;;;;;;;;5335886;27;20360;-85
2022/06/07 10:26:11;;;;;;;5.03;3.75;;;;;;;;;;5342239;27;20128;-84
2022/06/07 10:28:57;;;;;;;4.50;3.30;;;;;;;;;;5328448;27;20028;-86
2022/06/07 10:31:39;;;;;;;4.43;3.30;;;;;;;;;;5330862;27;20025;-85
2022/06/07 10:34:40;;;;;;;4.88;3.30;;;;;;;;;;5315988;28;20016;-85
2022/06/07 10:37:19;;;;;;;6.80;3.55;;;;;;;;;;5295667;28;20044;-84
2022/06/07 10:40:00;;;;;;;4.57;3.17;;;;;;;;;;5309667;28;20028;-85
2022/06/07 10:42:38;;;;;;;5.30;3.42;;;;;;;;;;5326682;28;20029;-85
2022/06/07 10:45:14;;;;;;;5.82;2.88;;;;;;;;;;5320854;27;20518;-85
2022/06/07 10:47:56;;;;;;;7.65;3.70;;;;;;;;;;5334035;27;20447;-84
2022/06/07 10:50:30;;;;;;;6.30;3.28;;;;;;;;;;5317747;28;20119;-85
2022/06/07 10:53:08;;;;;;;9.70;4.32;;;;;;;;;;5304102;28;20020;-85
2022/06/07 10:55:45;;;;;;;8.63;3.92;;;;;;;;;;5299378;28;20036;-85
2022/06/07 10:58:31;;;;;;;7.55;3.38;;;;;;;;;;5338574;27;20027;-85
2022/06/07 11:01:17;;;;;;;4.22;2.67;;;;;;;;;;5337785;27;20064;-84
2022/06/07 11:04:06;;;;;;;6.10;3.00;;;;;;;;;;5327971;27;20085;-85
2022/06/07 11:09:37;;;;;;;7.43;2.55;;;;;;;;;;5327841;27;20045;-85
2022/06/07 11:12:14;;;;;;;4.13;2.10;;;;;;;;;;5297962;28;20019;-85
2022/06/07 11:15:11;;;;;;;8.77;2.55;;;;;;;;;;5307465;28;20062;-86
2022/06/07 11:17:44;;;;;;;5.05;1.70;;;;;;;;;;5306996;28;20058;-85
2022/06/07 11:20:20;;;;;;;3.50;1.63;;;;;;;;;;5330886;27;20027;-86
2022/06/07 11:23:06;;;;;;;5.25;1.92;;;;;;;;;;5324925;27;20131;-85
2022/06/07 11:25:37;;;;;;;;;;;;;;;;;;5320437;27;20369;-85
2022/06/07 11:28:12;;;;;;;2.75;1.25;;;;;;;;;;5331062;28;19912;-86
2022/06/07 11:30:45;;;;;;;3.60;1.95;;;;;;;;;;5343392;27;20032;-85
2022/06/07 11:33:38;;;;;;;3.58;2.10;;;;;;;;;;5328984;27;20050;-86
2022/06/07 11:36:12;;;;;;;4.63;1.70;;;;;;;;;;5321975;28;20082;-85
2022/06/07 11:38:53;;;;;;;3.53;1.65;;;;;;;;;;5303049;27;20035;-86
2022/06/07 11:41:40;;;;;;;4.63;1.58;;;;;;;;;;5319083;28;20048;-86
2022/06/07 11:44:11;;;;;;;2.30;1.27;;;;;;;;;;5314890;27;20392;-86
2022/06/07 11:46:51;;;;;;;5.07;1.90;;;;;;;;;;5298323;28;20051;-86
2022/06/07 11:49:23;;;;;;;8.05;2.17;;;;;;;;;;5312356;28;20043;-86
2022/06/07 11:51:54;;;;;;;3.95;1.70;;;;;;;;;;5343134;27;20028;-85
2022/06/07 11:54:30;;;;;;;4.38;1.88;;;;;;;;;;5303910;27;20080;-85
2022/06/07 11:57:16;;;;;;;3.40;1.83;;;;;;;;;;5310054;27;20024;-85
2022/06/07 11:59:52;;;;;;;3.07;1.93;;;;;;;;;;5311854;28;20034;-83
2022/06/07 12:02:25;;;;;;;3.80;2.40;;;;;;;;;;5342375;27;20024;-86
2022/06/07 12:05:03;;;;;;;3.25;1.80;;;;;;;;;;5332834;27;20085;-86
2022/06/07 12:07:49;;;;;;;3.60;1.42;;;;;;;;;;5353553;27;20502;-85
2022/06/07 12:10:22;;;;;;;4.55;1.40;;;;;;;;;;5351510;27;20032;-85
2022/06/07 12:13:02;;;;;;;4.75;1.80;;;;;;;;;;5347382;27;20486;-86
2022/06/07 12:15:42;;;;;;;2.83;1.83;;;;;;;;;;5333977;27;20031;-85
2022/06/07 12:18:21;;;;;;;2.40;1.50;;;;;;;;;;5309159;28;20097;-85
2022/06/07 12:21:12;;;;;;;2.85;1.27;;;;;;;;;;5327599;27;20472;-85
2022/06/07 12:23:48;;;;;;;4.28;1.42;;;;;;;;;;5328105;27;20050;-85
2022/06/07 12:26:30;;;;;;;4.35;1.30;;;;;;;;;;5329600;28;20032;-85
2022/06/07 12:29:17;;;;;;;5.43;1.65;;;;;;;;;;5312819;27;20029;-85
2022/06/07 12:31:50;;;;;;;3.20;1.42;;;;;;;;;;5306434;28;20025;-85
2022/06/07 12:34:23;;;;;;;2.55;1.20;;;;;;;;;;5308624;28;20384;-85
2022/06/07 12:36:57;;;;;;;3.95;1.48;;;;;;;;;;5328483;28;20107;-86
2022/06/07 12:39:29;;;;;;;2.92;1.55;;;;;;;;;;5308374;28;20028;-85
2022/06/07 12:42:06;;;;;;;3.10;1.50;;;;;;;;;;5325057;28;20027;-86
2022/06/07 12:44:42;;;;;;;3.33;1.52;;;;;;;;;;5305869;28;20158;-85
2022/06/07 12:47:31;;;;;;;5.95;2.25;;;;;;;;;;5325770;28;20441;-85
2022/06/07 12:50:04;;;;;;;8.93;2.22;;;;;;;;;;5307269;28;20495;-85
2022/06/07 12:52:35;;;;;;;4.93;2.42;;;;;;;;;;5307704;28;20036;-86
2022/06/07 12:55:13;;;;;;;4.80;2.60;;;;;;;;;;5307040;28;20028;-85
2022/06/07 12:57:47;;;;;;;3.13;2.83;;;;;;;;;;5324443;27;20262;-86
2022/06/07 13:00:29;;;;;;;5.70;2.95;;;;;;;;;;5304767;27;20024;-86
2022/06/07 13:03:04;;;;;;;4.55;3.42;;;;;;;;;;5303299;28;20433;-86
2022/06/07 13:05:36;;;;;;;5.35;2.70;;;;;;;;;;5303671;28;20044;-86
2022/06/07 13:08:15;;;;;;;5.93;3.47;;;;;;;;;;5303928;28;20032;-85
2022/06/07 13:10:49;;;;;;;5.22;4.00;;;;;;;;;;5303845;28;20342;-86
2022/06/07 13:13:26;;;;;;;7.50;3.50;;;;;;;;;;5303628;28;20035;-85
2022/06/07 13:15:59;;;;;;;6.90;4.30;;;;;;;;;;5303856;27;20036;-85
2022/06/07 13:18:36;;;;;;;4.25;3.85;;;;;;;;;;5304884;27;20028;-85
2022/06/07 13:21:19;;;;;;;8.18;4.70;;;;;;;;;;5285396;28;20021;-86
2022/06/07 13:23:52;;;;;;;6.82;3.83;;;;;;;;;;5303175;28;20504;-86
2022/06/07 13:26:26;;;;;;;8.25;3.78;;;;;;;;;;5285370;28;20479;-86
2022/06/07 13:29:02;;;;;;;7.63;3.92;;;;;;;;;;5284698;28;20027;-85
2022/06/07 13:31:44;;;;;;;6.85;3.72;;;;;;;;;;5343404;27;20031;-86
2022/06/07 13:34:19;;;;;;;4.57;3.75;;;;;;;;;;5345820;27;20510;-86
2022/06/07 13:37:00;;;;;;;6.32;4.07;;;;;;;;;;5327369;27;20444;-86
2022/06/07 13:39:32;;;;;;;7.30;4.35;;;;;;;;;;5327195;27;20034;-87
2022/06/07 13:42:22;;;;;;;7.90;4.50;;;;;;;;;;5327279;27;20117;-87
2022/06/07 13:45:11;;;;;;;6.18;4.28;;;;;;;;;;5289353;27;20089;-86
2022/06/07 13:47:47;;;;;;;6.15;3.88;;;;;;;;;;5303415;28;20495;-87
2022/06/07 13:53:27;;;;;;;5.50;3.83;;;;;;;;;;5306499;28;20481;-86
2022/06/07 13:56:04;;;;;;;4.20;3.80;;;;;;;;;;5306502;28;20111;-84
2022/06/07 13:58:37;;;;;;;6.55;3.85;;;;;;;;;;5306357;28;20025;-86
2022/06/07 14:01:23;;;;;;;8.20;4.78;;;;;;;;;;5319042;27;20107;-86
2022/06/07 14:04:02;;;;;;;5.23;4.63;;;;;;;;;;5327745;28;20488;-85
2022/06/07 14:06:35;;;;;;;6.45;4.88;;;;;;;;;;5327954;27;20275;-85
2022/06/07 14:09:26;;;;;;;7.15;4.72;;;;;;;;;;5325679;28;20392;-85
2022/06/07 14:11:59;;;;;;;7.40;5.47;;;;;;;;;;5327293;27;20036;-85
2022/06/07 14:14:31;;;;;;;5.85;4.63;;;;;;;;;;5327427;28;20392;-85
2022/06/07 14:17:05;;;;;;;5.75;5.03;;;;;;;;;;5327291;28;20031;-85
2022/06/07 14:19:39;;;;;;;7.35;5.07;;;;;;;;;;5335679;27;20146;-85
2022/06/07 14:22:15;;;;;;;6.40;4.95;;;;;;;;;;5324079;27;20025;-85
2022/06/07 14:24:47;;;;;;;7.03;5.30;;;;;;;;;;5305765;28;20095;-85
2022/06/07 14:27:20;;;;;;;6.95;5.55;;;;;;;;;;5321929;28;20025;-85
2022/06/07 14:29:53;;;;;;;7.05;4.90;;;;;;;;;;5307811;28;20365;-85
2022/06/07 14:32:30;;;;;;;7.90;5.63;;;;;;;;;;5323586;27;20120;-86
2022/06/07 14:35:05;;;;;;;5.75;5.07;;;;;;;;;;5318168;27;20031;-86
2022/06/07 14:37:37;;;;;;;8.25;5.65;;;;;;;;;;5309544;28;20159;-86
2022/06/07 14:40:15;;;;;;;7.18;6.18;;;;;;;;;;5313763;28;20140;-85
2022/06/07 14:42:49;;;;;;;7.03;5.90;;;;;;;;;;5313095;28;20028;-85
2022/06/07 14:45:21;;;;;;;7.78;5.60;;;;;;;;;;5306252;28;20035;-86
2022/06/07 14:47:59;;;;;;;5.78;5.18;;;;;;;;;;5306663;28;20500;-85
2022/06/07 14:50:31;;;;;;;5.97;5.38;;;;;;;;;;5305897;28;20016;-86
2022/06/07 14:53:02;;;;;;;7.90;5.40;;;;;;;;;;5287614;28;20028;-86
2022/06/07 14:55:34;;;;;;;6.53;5.67;;;;;;;;;;5308175;27;20024;-86
2022/06/07 14:58:05;;;;;;;5.67;4.87;;;;;;;;;;5287591;28;20271;-86
2022/06/07 15:00:37;;;;;;;8.20;5.60;;;;;;;;;;5305526;28;20025;-85
2022/06/07 15:03:10;;;;;;;8.35;6.00;;;;;;;;;;5308202;28;20028;-85
2022/06/07 15:05:48;;;;;;;6.15;5.55;;;;;;;;;;5307478;28;20107;-85
2022/06/07 15:08:20;;;;;;;5.65;5.15;;;;;;;;;;5287697;28;20021;-85
2022/06/07 15:10:51;;;;;;;7.30;5.45;;;;;;;;;;5308698;28;20021;-85
2022/06/07 15:13:28;;;;;;;6.05;5.07;;;;;;;;;;5307128;28;20350;-85
2022/06/07 15:16:05;;;;;;;5.22;4.55;;;;;;;;;;5310112;28;20460;-85
2022/06/07 15:18:37;;;;;;;7.05;5.57;;;;;;;;;;5296644;28;20487;-86
2022/06/07 15:21:16;;;;;;;5.95;4.65;;;;;;;;;;5318597;28;20061;-86
2022/06/07 15:23:48;;;;;;;8.68;4.93;;;;;;;;;;5303061;28;20044;-85
2022/06/07 15:26:21;;;;;;;5.35;4.90;;;;;;;;;;5293666;28;20034;-86
2022/06/07 15:28:52;;;;;;;6.75;4.75;;;;;;;;;;5317647;27;20069;-86
2022/06/07 15:31:25;;;;;;;4.40;4.00;;;;;;;;;;5317420;27;20054;-86
2022/06/07 15:33:59;;;;;;;4.40;3.50;;;;;;;;;;5316776;28;20028;-86
2022/06/07 15:36:30;;;;;;;5.47;4.20;;;;;;;;;;5323788;28;20075;-84
2022/06/07 15:39:03;;;;;;;5.90;5.30;;;;;;;;;;5312421;28;20031;-85
2022/06/07 15:44:24;;;;;;;7.30;5.60;;;;;;;;;;5309572;28;20480;-86
2022/06/07 15:46:55;;;;;;;6.90;6.30;;;;;;;;;;5317104;27;20046;-86
2022/06/07 15:49:26;;;;;;;7.90;7.13;;;;;;;;;;5315622;27;20641;-86
2022/06/07 15:51:57;;;;;;;6.73;6.13;;;;;;;;;;5317232;28;20026;-86
2022/06/07 15:54:31;;;;;;;6.70;5.88;;;;;;;;;;5297540;28;20098;-86
2022/06/07 15:57:02;;;;;;;6.88;6.07;;;;;;;;;;5312787;28;20055;-87
2022/06/07 15:59:35;;;;;;;9.02;6.55;;;;;;;;;;5294609;28;20056;-86
2022/06/07 16:02:08;;;;;;;7.65;6.82;;;;;;;;;;5327582;27;20024;-86
2022/06/07 16:04:39;;;;;;;7.28;6.22;;;;;;;;;;5297991;28;20045;-88
2022/06/07 16:07:11;;;;;;;7.97;6.70;;;;;;;;;;5297871;28;20035;-86
2022/06/07 16:09:42;;;;;;;9.82;6.82;;;;;;;;;;5314274;27;20281;-85
2022/06/07 16:12:14;;;;;;;6.90;6.00;;;;;;;;;;5325519;28;20384;-86
2022/06/07 16:14:46;;;;;;;6.93;6.40;;;;;;;;;;5324649;27;20086;-86
2022/06/07 16:17:17;;;;;;;9.60;7.00;;;;;;;;;;5306943;28;20016;-85
2022/06/07 16:19:48;;;;;;;9.70;8.68;;;;;;;;;;5325253;27;20034;-85
2022/06/07 16:22:19;;;;;;;8.73;7.88;;;;;;;;;;5338894;27;20035;-85
2022/06/07 16:24:51;;;;;;;8.00;7.28;;;;;;;;;;5324556;27;20032;-85
2022/06/07 16:33:18;;;;;;;9.73;8.93;;;;;;;;;;5304046;28;20381;-85
2022/06/07 16:35:54;;;;;;;10.07;9.15;;;;;;;;;;5305793;28;20398;-85
2022/06/07 16:38:27;;;;;;;10.18;9.27;;;;;;;;;;5324906;28;20024;-85
2022/06/07 16:40:59;;;;;;;10.18;9.20;;;;;;;;;;5325451;28;20089;-85
2022/06/07 16:46:20;;;;;;;11.38;10.48;;;;;;;;;;5324948;28;20021;-85
2022/06/07 16:48:51;;;;;;;12.32;11.13;;;;;;;;;;5307093;28;20031;-85
2022/06/07 16:51:26;;;;;;;12.90;11.63;;;;;;;;;;5306748;28;20134;-85
2022/06/07 16:53:58;;;;;;;12.60;11.30;;;;;;;;;;5324043;27;20111;-85
2022/06/07 16:56:29;;;;;;;13.43;11.73;;;;;;;;;;5320338;27;20548;-85
2022/06/07 16:59:03;;;;;;;9.73;8.93;;;;;;;;;;5306428;28;20020;-85
2022/06/07 17:01:35;;;;;;;8.52;7.82;;;;;;;;;;5324943;27;20491;-85
2022/06/07 17:04:07;;;;;;;8.23;7.07;;;;;;;;;;5324821;28;20036;-85
2022/06/07 17:06:40;;;;;;;8.80;7.68;;;;;;;;;;5324639;28;20028;-85
2022/06/07 17:09:12;;;;;;;10.82;8.82;;;;;;;;;;5305741;28;20525;-85
2022/06/07 17:11:44;;;;;;;9.93;8.77;;;;;;;;;;5324830;28;20095;-85
2022/06/07 17:14:15;;;;;;;11.13;10.18;;;;;;;;;;5324164;28;20381;-85
2022/06/07 17:16:47;;;;;;;12.20;11.05;;;;;;;;;;5306319;28;20027;-85